Time;durP1;ratioP1;P1;durP2;ratioP2;P2;SDS_P1;SDS_P2;PMS_P1;PMS_P2;Temp;Humidity;BMP_temperature;BMP_pressure;BME280_temperature;BME280_humidity;BME280_pressure;Samples;Min_cycle;Max_cycle;Signal;HPM_P1;HPM_P2
2022/11/29 00:01:26;;;;;;;14.45;8.05;;;;;;;5.75;99.16;100740.66;5051669;28;20052;-76
2022/11/29 00:03:53;;;;;;;12.18;9.05;;;;;;;5.75;99.16;100744.97;5051047;28;20171;-76
2022/11/29 00:06:26;;;;;;;10.75;6.97;;;;;;;5.75;99.33;100739.75;5050282;28;20044;-75
2022/11/29 00:08:54;;;;;;;11.80;7.47;;;;;;;5.74;99.56;100738.03;5054224;28;21019;-76
2022/11/29 00:14:13;;;;;;;12.02;7.30;;;;;;;5.74;99.52;100740.63;5046859;28;20065;-75
2022/11/29 00:16:40;;;;;;;13.02;8.48;;;;;;;5.73;99.68;100744.94;5054260;28;20440;-76
2022/11/29 00:19:09;;;;;;;14.35;9.20;;;;;;;5.73;99.65;100741.47;5050027;28;20778;-76
2022/11/29 00:21:35;;;;;;;14.70;8.88;;;;;;;5.72;99.73;100735.44;5069098;28;20048;-78
2022/11/29 00:24:02;;;;;;;15.43;9.05;;;;;;;5.72;99.73;100735.44;5064468;28;20052;-77
2022/11/29 00:26:29;;;;;;;10.25;7.95;;;;;;;5.72;99.84;100744.94;5066638;27;20047;-75
2022/11/29 00:28:55;;;;;;;11.25;8.40;;;;;;;5.71;99.75;100741.47;5069827;28;20058;-75
2022/11/29 00:31:31;;;;;;;12.45;9.35;;;;;;;5.72;100.00;100743.22;5066498;28;20038;-75
2022/11/29 00:34:00;;;;;;;16.13;9.50;;;;;;;5.72;99.59;100740.63;5065330;28;20058;-75
2022/11/29 00:36:27;;;;;;;15.20;9.18;;;;;;;5.72;99.69;100747.53;5048336;28;20048;-76
2022/11/29 00:38:54;;;;;;;11.80;8.18;;;;;;;5.72;99.88;100751.00;5071971;28;20054;-76
2022/11/29 00:41:20;;;;;;;11.23;7.00;;;;;;;5.70;100.00;100741.47;5064286;28;20043;-78
2022/11/29 00:43:47;;;;;;;9.63;7.85;;;;;;;5.71;100.00;100748.38;5052959;28;20075;-78
2022/11/29 00:46:14;;;;;;;14.57;8.65;;;;;;;5.71;99.94;100743.19;5064834;28;20162;-77
2022/11/29 00:48:40;;;;;;;11.88;7.38;;;;;;;5.71;100.00;100741.47;5068262;27;20043;-75
2022/11/29 00:51:08;;;;;;;11.48;7.85;;;;;;;5.74;100.00;100743.25;5066160;28;20126;-77
2022/11/29 00:53:36;;;;;;;10.80;7.80;;;;;;;5.72;99.80;100740.63;5089088;28;20164;-75
2022/11/29 00:56:04;;;;;;;12.60;8.35;;;;;;;5.71;100.00;100732.78;5070580;28;20042;-76
2022/11/29 00:58:31;;;;;;;14.02;7.88;;;;;;;5.70;100.00;100742.31;5053765;28;20050;-76
2022/11/29 01:00:57;;;;;;;13.90;7.53;;;;;;;5.70;100.00;100742.31;5068825;28;20047;-77
2022/11/29 01:03:24;;;;;;;10.52;7.57;;;;;;;5.71;100.00;100740.59;5069216;28;20046;-77
2022/11/29 01:05:51;;;;;;;13.02;8.02;;;;;;;5.68;100.00;100740.56;5069655;28;20124;-78
2022/11/29 01:08:18;;;;;;;13.88;7.32;;;;;;;5.66;100.00;100740.53;5069968;28;20052;-77
2022/11/29 01:10:45;;;;;;;12.32;8.23;;;;;;;5.66;100.00;100745.75;5088026;28;20067;-76
2022/11/29 01:13:12;;;;;;;10.98;8.13;;;;;;;5.66;100.00;100745.75;5073370;28;20158;-75
2022/11/29 01:15:38;;;;;;;14.48;8.27;;;;;;;5.66;100.00;100744.84;5068423;28;20044;-76
2022/11/29 01:18:05;;;;;;;9.85;6.85;;;;;;;5.69;100.00;100747.50;5070005;28;20042;-76
2022/11/29 01:20:32;;;;;;;13.82;8.57;;;;;;;5.69;100.00;100757.88;5089678;28;20050;-76
2022/11/29 01:23:00;;;;;;;13.82;8.18;;;;;;;5.69;100.00;100750.09;5062639;28;20094;-77
2022/11/29 01:25:34;;;;;;;10.80;7.80;;;;;;;5.69;100.00;100757.88;5053184;28;20696;-76
2022/11/29 01:28:01;;;;;;;9.82;6.63;;;;;;;5.66;100.00;100755.22;5045447;28;20497;-78
2022/11/29 01:30:37;;;;;;;13.07;7.55;;;;;;;5.63;100.00;100753.47;5050175;28;20513;-76
2022/11/29 01:33:09;;;;;;;15.27;7.60;;;;;;;5.62;100.00;100754.34;5050343;28;20127;-76
2022/11/29 01:35:58;;;;;;;13.38;8.43;;;;;;;5.61;100.00;100750.84;5039493;28;20410;-75
2022/11/29 01:38:24;;;;;;;11.02;8.13;;;;;;;5.61;100.00;100757.78;5048464;28;20067;-75
2022/11/29 01:41:32;;;;;;;15.20;8.15;;;;;;;5.61;100.00;100757.78;5048195;28;20606;-79
2022/11/29 01:44:14;;;;;;;10.50;7.65;;;;;;;5.61;100.00;100755.19;4992721;28;20495;-76
2022/11/29 01:46:49;;;;;;;12.45;8.07;;;;;;;5.59;100.00;100755.19;5063927;28;20071;-77
2022/11/29 01:49:27;;;;;;;18.30;9.77;;;;;;;5.59;100.00;100760.38;5065393;28;20150;-76
2022/11/29 01:52:14;;;;;;;18.48;9.23;;;;;;;5.58;100.00;100760.31;5037252;28;20110;-76
2022/11/29 01:54:54;;;;;;;14.77;8.20;;;;;;;5.54;100.00;100759.44;5046812;28;20087;-77
2022/11/29 01:57:29;;;;;;;9.98;7.80;;;;;;;5.53;100.00;100755.09;5048101;28;20127;-75
2022/11/29 02:03:01;;;;;;;11.07;8.15;;;;;;;5.49;100.00;100750.72;5057288;28;20163;-76
2022/11/29 02:05:28;;;;;;;12.35;7.45;;;;;;;5.50;100.00;100759.34;5055844;28;20047;-76
2022/11/29 02:07:57;;;;;;;11.02;8.07;;;;;;;5.50;100.00;100761.97;5052927;28;20036;-76
2022/11/29 02:11:15;;;;;;;13.73;8.95;;;;;;;5.48;100.00;100767.13;5053232;28;20078;-78
2022/11/29 02:14:10;;;;;;;14.18;8.15;;;;;;;5.49;100.00;100760.22;5045949;28;20109;-77
2022/11/29 02:17:10;;;;;;;12.52;7.22;;;;;;;5.49;100.00;100758.50;5055826;28;20036;-76
2022/11/29 02:20:22;;;;;;;13.40;8.27;;;;;;;5.50;100.00;100764.56;5054322;28;20033;-75
2022/11/29 02:23:20;;;;;;;10.95;7.05;;;;;;;5.49;100.00;100765.41;5058354;27;20139;-76
2022/11/29 02:26:25;;;;;;;10.82;7.38;;;;;;;5.49;100.00;100765.41;5075018;28;20096;-75
2022/11/29 02:29:30;;;;;;;12.68;8.02;;;;;;;5.47;100.00;100767.97;5070697;28;20055;-77
2022/11/29 02:32:30;;;;;;;13.93;8.43;;;;;;;5.39;100.00;100765.28;5084293;28;20143;-77
2022/11/29 02:35:15;;;;;;;15.02;8.82;;;;;;;5.41;100.00;100766.19;5084515;28;20138;-75
2022/11/29 02:38:25;;;;;;;13.35;8.48;;;;;;;5.42;100.00;100770.53;5085685;28;20044;-76
2022/11/29 02:41:08;;;;;;;13.73;9.13;;;;;;;5.40;100.00;100771.34;5076240;28;20168;-76
2022/11/29 02:44:32;;;;;;;13.77;8.18;;;;;;;5.36;100.00;100772.13;5071333;28;20163;-75
2022/11/29 02:47:23;;;;;;;11.60;8.23;;;;;;;5.33;100.00;100766.91;5085764;27;21246;-77
2022/11/29 02:50:00;;;;;;;10.40;7.60;;;;;;;5.29;100.00;100763.41;5069178;28;20131;-76
2022/11/29 02:52:42;;;;;;;12.85;6.72;;;;;;;5.29;100.00;100772.06;5071769;28;20533;-76
2022/11/29 02:55:28;;;;;;;11.30;7.82;;;;;;;5.29;100.00;100774.66;5070002;28;20090;-76
2022/11/29 02:58:11;;;;;;;13.65;7.93;;;;;;;5.28;100.00;100777.25;5072242;28;20180;-76
2022/11/29 03:00:51;;;;;;;14.68;8.48;;;;;;;5.27;100.00;100783.28;5073072;28;20044;-76
2022/11/29 03:03:26;;;;;;;12.45;8.23;;;;;;;5.27;100.00;100776.34;5058152;28;20164;-76
2022/11/29 03:06:15;;;;;;;13.93;8.43;;;;;;;5.27;100.00;100788.47;5070940;28;20472;-76
2022/11/29 03:09:19;;;;;;;12.48;8.35;;;;;;;5.26;100.00;100791.91;5072670;28;20043;-77
2022/11/29 03:11:55;;;;;;;11.82;7.72;;;;;;;5.27;100.00;100794.53;5073527;28;20049;-76
2022/11/29 03:14:33;;;;;;;13.88;7.95;;;;;;;5.27;100.00;100794.53;5085941;28;20098;-77
2022/11/29 03:17:10;;;;;;;10.88;7.28;;;;;;;5.29;100.00;100791.94;5091779;28;20056;-77
2022/11/29 03:20:18;;;;;;;13.20;8.30;;;;;;;5.30;100.00;100791.97;5078573;28;20040;-77
2022/11/29 03:23:10;;;;;;;14.27;8.32;;;;;;;5.29;100.00;100789.34;5074021;28;20436;-77
2022/11/29 03:25:44;;;;;;;16.75;9.20;;;;;;;5.26;100.00;100797.97;5070059;28;20052;-76
2022/11/29 03:28:41;;;;;;;12.88;8.45;;;;;;;5.28;100.00;100800.59;5067064;28;20055;-77
2022/11/29 03:31:32;;;;;;;10.73;7.68;;;;;;;5.27;100.00;100791.06;5068683;28;20121;-77
2022/11/29 03:34:33;;;;;;;12.02;7.40;;;;;;;5.27;100.00;100797.13;5068390;28;20494;-76
2022/11/29 03:37:14;;;;;;;14.18;8.43;;;;;;;5.30;100.00;100804.94;5059708;28;20225;-76
2022/11/29 03:40:05;;;;;;;12.07;7.97;;;;;;;5.33;100.00;100811.91;5074058;28;20063;-76
2022/11/29 03:42:51;;;;;;;13.70;9.25;;;;;;;5.31;100.00;100811.03;5070922;28;20044;-77
2022/11/29 03:45:30;;;;;;;15.07;8.77;;;;;;;5.32;100.00;100814.47;5053822;28;20060;-76
2022/11/29 03:48:22;;;;;;;11.15;8.10;;;;;;;5.35;100.00;100814.56;5069271;28;20055;-75
2022/11/29 03:51:14;;;;;;;11.43;7.72;;;;;;;5.37;100.00;100811.13;5073475;28;20047;-77
2022/11/29 03:53:55;;;;;;;11.80;8.30;;;;;;;5.38;100.00;100814.59;5066263;28;20064;-77
2022/11/29 03:56:34;;;;;;;13.93;9.45;;;;;;;5.39;100.00;100826.72;5055256;28;20052;-76
2022/11/29 03:59:30;;;;;;;11.25;7.35;;;;;;;5.39;100.00;100826.72;5071598;28;20078;-75
2022/11/29 04:03:11;;;;;;;14.52;9.23;;;;;;;5.39;100.00;100827.59;5074685;28;20041;-77
2022/11/29 04:05:57;;;;;;;11.27;7.90;;;;;;;5.37;100.00;100823.22;5009307;28;20060;-76
2022/11/29 04:08:51;;;;;;;10.27;7.53;;;;;;;5.36;100.00;100824.94;4991943;28;20200;-77
2022/11/29 04:11:58;;;;;;;11.48;7.22;;;;;;;5.37;100.00;100831.00;5075874;28;20071;-76
2022/11/29 04:14:34;;;;;;;14.55;7.82;;;;;;;5.38;100.00;100832.75;5074644;28;20075;-76
2022/11/29 04:17:45;;;;;;;11.70;7.82;;;;;;;5.37;100.00;100831.00;5072619;28;20040;-76
2022/11/29 04:20:33;;;;;;;10.57;6.97;;;;;;;5.37;100.00;100826.69;5074626;28;20138;-76
2022/11/29 04:23:45;;;;;;;13.85;8.65;;;;;;;5.35;100.00;100835.31;5080855;28;20113;-76
2022/11/29 04:26:48;;;;;;;10.80;8.00;;;;;;;5.33;100.00;100832.66;5060277;28;20044;-76
2022/11/29 04:29:43;;;;;;;13.00;8.55;;;;;;;5.31;100.00;100834.38;5072610;28;20134;-76
2022/11/29 04:32:46;;;;;;;9.95;7.25;;;;;;;5.32;100.00;100843.03;5074732;28;20043;-75
2022/11/29 04:35:39;;;;;;;19.13;9.70;;;;;;;5.28;100.00;100844.72;5071442;27;20040;-75
2022/11/29 04:38:33;;;;;;;13.85;8.90;;;;;;;5.26;100.00;100844.69;5071760;28;20484;-76
2022/11/29 04:41:19;;;;;;;;;;;;;;;5.24;100.00;100850.69;5094753;27;20036;-74
2022/11/29 04:44:15;;;;;;;15.85;9.07;;;;;;;5.24;100.00;100850.69;5091360;28;19923;-76
2022/11/29 04:47:11;;;;;;;13.25;8.30;;;;;;;5.20;100.00;100847.22;5073156;28;20044;-78
2022/11/29 04:50:09;;;;;;;12.90;7.75;;;;;;;5.19;100.00;100855.84;5088295;27;20055;-76
2022/11/29 04:53:00;;;;;;;16.08;8.60;;;;;;;5.19;100.00;100862.72;5075020;27;20044;-75
2022/11/29 04:56:13;;;;;;;12.85;8.60;;;;;;;5.19;100.00;100862.72;5086531;28;20046;-78
2022/11/29 04:59:21;;;;;;;11.02;8.02;;;;;;;5.19;100.00;100858.44;5060907;28;20132;-75
2022/11/29 05:02:20;;;;;;;11.63;7.88;;;;;;;5.20;100.00;100864.47;5062592;28;20087;-76
2022/11/29 05:05:06;;;;;;;14.15;8.30;;;;;;;5.21;100.00;100871.44;5086477;28;20055;-75
2022/11/29 05:08:12;;;;;;;13.50;7.50;;;;;;;5.23;100.00;100874.94;5088028;28;20058;-76
2022/11/29 05:11:14;;;;;;;10.30;7.65;;;;;;;5.23;100.00;100873.19;5068753;28;20279;-75
2022/11/29 05:14:31;;;;;;;14.30;9.93;;;;;;;5.18;100.00;100871.38;5061611;28;20056;-76
2022/11/29 05:17:25;;;;;;;14.07;8.82;;;;;;;5.14;100.00;100870.44;5054102;28;20055;-76
2022/11/29 05:20:20;;;;;;;12.45;8.02;;;;;;;5.12;100.00;100882.50;5069336;28;20048;-75
2022/11/29 05:23:33;;;;;;;10.45;6.47;;;;;;;5.11;100.00;100881.66;5071679;28;20048;-78
2022/11/29 05:26:10;;;;;;;12.88;7.75;;;;;;;5.12;100.00;100890.31;5074230;28;20062;-76
2022/11/29 05:29:13;;;;;;;11.45;7.78;;;;;;;5.11;100.00;100889.44;5079467;28;20056;-78
2022/11/29 05:32:22;;;;;;;13.48;7.53;;;;;;;5.09;100.00;100892.84;5094960;28;20059;-78
2022/11/29 05:35:13;;;;;;;10.48;7.03;;;;;;;5.08;100.00;100899.75;5078231;28;20043;-76
2022/11/29 05:37:49;;;;;;;13.52;8.23;;;;;;;5.06;100.00;100901.47;5079904;28;20063;-77
2022/11/29 05:40:53;;;;;;;12.82;8.68;;;;;;;5.05;100.00;100904.03;5076867;28;20177;-76
2022/11/29 05:43:41;;;;;;;11.90;8.18;;;;;;;5.05;100.00;100917.00;5080341;27;20338;-77
2022/11/29 05:46:41;;;;;;;13.90;9.13;;;;;;;5.04;100.00;100918.72;5095516;28;20139;-77
2022/11/29 05:49:30;;;;;;;14.50;8.27;;;;;;;5.03;100.00;100913.50;5077096;27;20142;-77
2022/11/29 05:52:45;;;;;;;16.80;9.20;;;;;;;5.03;100.00;100919.59;5078239;27;20044;-75
2022/11/29 05:55:14;;;;;;;14.27;8.02;;;;;;;5.04;100.00;100930.81;5077661;27;20056;-77
2022/11/29 05:58:25;;;;;;;12.35;7.93;;;;;;;5.01;100.00;100930.78;5095196;27;20050;-76
2022/11/29 06:01:25;;;;;;;13.38;8.82;;;;;;;5.00;100.00;100929.03;5095211;27;20147;-76
2022/11/29 06:04:28;;;;;;;13.65;6.97;;;;;;;5.00;100.00;100935.06;5078792;27;20045;-76
2022/11/29 06:07:37;;;;;;;13.73;8.57;;;;;;;4.98;100.00;100934.19;5075727;28;20040;-76
2022/11/29 06:10:11;;;;;;;9.68;6.70;;;;;;;5.00;100.00;100944.59;5073920;27;20637;-76
2022/11/29 06:12:38;;;;;;;13.25;8.70;;;;;;;5.02;100.00;100937.69;5079366;27;20558;-75
2022/11/29 06:15:50;;;;;;;11.38;7.90;;;;;;;5.06;100.00;100945.56;5059666;27;20759;-79
2022/11/29 06:18:56;;;;;;;13.18;8.80;;;;;;;5.05;100.00;100942.97;5091098;27;20118;-76
2022/11/29 06:21:41;;;;;;;13.80;7.68;;;;;;;5.03;100.00;100942.94;5074479;28;20051;-76
2022/11/29 06:24:29;;;;;;;11.73;8.20;;;;;;;5.03;100.00;100948.13;5078304;28;20155;-75
2022/11/29 06:27:32;;;;;;;12.65;8.80;;;;;;;5.03;100.00;100949.81;5067894;28;20048;-75
2022/11/29 06:30:11;;;;;;;13.75;8.75;;;;;;;5.06;100.00;100950.75;5080036;28;20040;-77
2022/11/29 06:32:53;;;;;;;11.52;7.25;;;;;;;5.09;100.00;100952.53;5050806;28;20052;-76
2022/11/29 06:35:45;;;;;;;14.65;7.93;;;;;;;5.11;100.00;100948.22;5081027;28;20046;-77
2022/11/29 06:38:27;;;;;;;12.48;8.52;;;;;;;5.09;100.00;100957.72;5065794;28;20134;-75
2022/11/29 06:40:56;;;;;;;13.35;8.88;;;;;;;5.08;100.00;100955.97;5084647;28;20036;-76
2022/11/29 06:43:25;;;;;;;13.98;8.57;;;;;;;5.09;100.00;100958.59;5084706;28;20036;-77
2022/11/29 06:45:59;;;;;;;11.10;8.30;;;;;;;5.09;100.00;100965.50;5065231;28;20048;-77
2022/11/29 06:48:33;;;;;;;13.52;8.52;;;;;;;5.10;100.00;100955.16;5062923;28;20040;-76
2022/11/29 06:51:02;;;;;;;19.30;9.90;;;;;;;5.13;100.00;100959.53;5064084;28;20060;-76
2022/11/29 06:54:07;;;;;;;16.65;8.82;;;;;;;5.14;100.00;100962.16;5084565;28;20046;-76
2022/11/29 06:56:46;;;;;;;11.63;7.28;;;;;;;5.15;100.00;100968.22;5084637;28;20046;-76
2022/11/29 06:59:40;;;;;;;13.88;9.30;;;;;;;5.17;100.00;100969.13;5064596;28;20045;-75
2022/11/29 07:02:42;;;;;;;13.40;8.85;;;;;;;5.16;100.00;100969.94;5080956;28;20877;-78
2022/11/29 07:05:17;;;;;;;11.75;7.72;;;;;;;5.15;100.00;100978.59;5078246;28;20134;-75
2022/11/29 07:07:45;;;;;;;15.00;9.88;;;;;;;5.19;100.00;100979.50;5062227;28;20044;-78
2022/11/29 07:10:18;;;;;;;14.63;7.70;;;;;;;5.21;100.00;100980.44;5065324;28;20064;-77
2022/11/29 07:12:47;;;;;;;11.43;8.95;;;;;;;5.24;100.00;100980.47;5067614;28;20134;-77
2022/11/29 07:15:20;;;;;;;14.13;8.02;;;;;;;5.25;100.00;100985.72;5084360;28;20059;-78
2022/11/29 07:18:06;;;;;;;17.25;10.52;;;;;;;5.26;100.00;100984.84;5063625;28;20039;-79
2022/11/29 07:21:22;;;;;;;14.02;10.18;;;;;;;5.27;100.00;100994.41;5068540;28;20478;-77
2022/11/29 07:24:22;;;;;;;13.90;8.25;;;;;;;5.28;100.00;100990.09;5017558;28;20277;-78
2022/11/29 07:27:12;;;;;;;13.60;8.55;;;;;;;5.28;100.00;100998.75;5018665;28;20232;-78
2022/11/29 07:30:05;;;;;;;14.63;8.15;;;;;;;5.29;100.00;100999.59;5070420;28;20314;-75
2022/11/29 07:32:48;;;;;;;14.38;7.88;;;;;;;5.29;100.00;100994.41;5075580;28;20047;-79
2022/11/29 07:35:22;;;;;;;15.00;8.32;;;;;;;5.30;100.00;101001.34;5073964;28;20040;-75
2022/11/29 07:38:12;;;;;;;13.40;8.18;;;;;;;5.30;100.00;101009.16;5073788;28;20053;-78
2022/11/29 07:41:04;;;;;;;11.48;7.93;;;;;;;5.32;100.00;101014.38;5069274;28;20392;-76
2022/11/29 07:43:40;;;;;;;14.48;9.20;;;;;;;5.32;100.00;101011.75;5062238;28;20186;-77
2022/11/29 07:46:06;;;;;;;17.17;9.40;;;;;;;5.34;100.00;101012.69;5079638;28;20044;-77
2022/11/29 07:48:33;;;;;;;10.82;7.82;;;;;;;5.35;100.00;101014.44;5064298;28;20058;-76
2022/11/29 07:51:01;;;;;;;14.00;9.23;;;;;;;5.34;100.00;101013.53;5082260;28;20082;-75
2022/11/29 07:53:29;;;;;;;18.45;8.10;;;;;;;5.36;100.00;101021.34;5066287;28;20067;-77
2022/11/29 07:55:57;;;;;;;13.20;8.30;;;;;;;5.39;100.00;101024.88;5071879;28;20062;-76
2022/11/29 07:58:24;;;;;;;16.17;8.93;;;;;;;5.40;100.00;101026.66;5068416;28;20060;-76
2022/11/29 08:00:51;;;;;;;13.77;8.63;;;;;;;5.40;100.00;101026.66;5081292;28;20072;-78
2022/11/29 08:03:18;;;;;;;21.98;8.57;;;;;;;5.43;100.00;101031.03;5060866;28;20085;-77
2022/11/29 08:05:48;;;;;;;14.75;8.05;;;;;;;5.48;100.00;101039.78;5069135;28;20101;-76
2022/11/29 08:08:15;;;;;;;12.48;7.65;;;;;;;5.50;100.00;101037.19;5065086;28;21071;-78
2022/11/29 08:10:42;;;;;;;15.38;8.35;;;;;;;5.53;100.00;101037.25;5064938;28;20075;-77
2022/11/29 08:13:09;;;;;;;14.10;8.10;;;;;;;5.54;100.00;101037.28;5065894;28;20071;-78
2022/11/29 08:15:35;;;;;;;15.50;9.77;;;;;;;5.55;100.00;101035.56;5084218;28;20150;-78
2022/11/29 08:18:03;;;;;;;13.70;9.43;;;;;;;5.59;100.00;101051.22;5050616;28;20147;-76
2022/11/29 08:20:40;;;;;;;;;;;;;;;;;;;;;
2022/11/29 08:23:06;;;;;;;14.73;10.00;;;;;;;5.63;100.00;101041.75;5055161;28;20065;-78
2022/11/29 08:25:33;;;;;;;14.57;9.98;;;;;;;5.66;100.00;101043.53;5040813;28;20110;-75
2022/11/29 08:28:03;;;;;;;14.30;9.25;;;;;;;5.69;100.00;101046.19;5068201;28;20130;-76
2022/11/29 08:30:30;;;;;;;18.10;10.75;;;;;;;5.70;100.00;101043.63;5064685;28;20060;-76
2022/11/29 08:32:57;;;;;;;15.27;9.27;;;;;;;5.70;99.91;101043.63;5070845;28;20047;-77
2022/11/29 08:35:24;;;;;;;20.38;10.18;;;;;;;5.73;99.73;101048.84;5050711;28;20048;-74
2022/11/29 08:37:54;;;;;;;14.48;9.85;;;;;;;5.77;99.74;101050.66;5066553;28;20044;-76
2022/11/29 08:40:21;;;;;;;15.00;10.68;;;;;;;5.80;99.64;101045.53;5056805;28;20055;-76
2022/11/29 08:42:50;;;;;;;12.73;9.68;;;;;;;5.81;99.60;101051.59;5068949;28;20060;-77
2022/11/29 08:45:16;;;;;;;19.42;11.90;;;;;;;5.83;99.21;101057.69;5068585;28;20071;-75
2022/11/29 08:47:43;;;;;;;14.15;8.90;;;;;;;5.83;99.28;101055.09;5050151;28;20165;-77
2022/11/29 08:50:17;;;;;;;15.25;10.70;;;;;;;5.88;98.80;101057.75;5054160;28;20052;-77
2022/11/29 08:55:38;;;;;;;15.13;10.25;;;;;;;5.92;98.46;101068.25;5074708;28;20038;-76
2022/11/29 08:58:12;;;;;;;18.67;11.60;;;;;;;5.95;98.08;101072.63;5065858;28;20068;-76
2022/11/29 09:00:39;;;;;;;17.88;10.43;;;;;;;5.94;98.05;101066.56;5081925;28;20123;-75
2022/11/29 09:05:52;;;;;;;18.45;11.25;;;;;;;5.98;97.34;101070.09;5070595;28;20223;-76
2022/11/29 09:08:20;;;;;;;18.85;12.77;;;;;;;6.01;98.02;101072.75;5065057;28;20900;-75
2022/11/29 09:10:47;;;;;;;22.92;12.02;;;;;;;6.05;97.78;101079.75;5064963;28;20040;-76
2022/11/29 09:13:14;;;;;;;18.67;10.07;;;;;;;6.09;97.62;101073.75;5083166;28;20067;-76
2022/11/29 09:15:42;;;;;;;17.55;10.82;;;;;;;6.13;97.39;101085.09;5067123;28;20123;-75
2022/11/29 09:18:08;;;;;;;16.33;9.95;;;;;;;6.17;97.06;101076.47;5073239;28;20055;-75
2022/11/29 09:20:35;;;;;;;19.00;11.43;;;;;;;6.21;96.79;101088.66;5069859;28;20039;-75
2022/11/29 09:23:02;;;;;;;19.17;10.98;;;;;;;6.20;96.41;101086.91;5052746;28;20067;-76
2022/11/29 09:25:28;;;;;;;13.80;9.38;;;;;;;6.22;96.22;101085.22;5055169;28;20040;-77
2022/11/29 09:28:00;;;;;;;15.27;9.50;;;;;;;6.22;96.11;101086.94;5052597;28;20063;-76
2022/11/29 09:30:29;;;;;;;20.75;10.63;;;;;;;6.20;96.06;101089.50;5070365;28;20046;-75
2022/11/29 09:32:56;;;;;;;15.38;10.38;;;;;;;6.20;96.31;101086.91;5081513;28;20131;-75
2022/11/29 09:35:22;;;;;;;20.48;10.35;;;;;;;6.21;96.18;101086.06;5066883;28;20101;-75
2022/11/29 09:37:49;;;;;;;16.08;10.07;;;;;;;6.23;96.09;101089.59;5069910;28;20040;-76
2022/11/29 09:40:22;;;;;;;21.15;10.82;;;;;;;6.23;95.84;101089.59;5069620;28;20040;-75
2022/11/29 09:43:18;;;;;;;15.48;10.18;;;;;;;6.22;96.25;101095.63;5066820;28;20047;-77
2022/11/29 09:45:55;;;;;;;13.10;9.35;;;;;;;6.26;96.29;101099.16;5056231;28;20048;-77
2022/11/29 09:48:43;;;;;;;20.63;9.88;;;;;;;6.31;96.05;101101.81;5060191;28;20125;-77
2022/11/29 09:51:53;;;;;;;23.95;11.43;;;;;;;6.35;95.79;101103.59;5068530;28;20073;-76
2022/11/29 09:54:40;;;;;;;14.32;9.25;;;;;;;6.37;95.68;101110.56;5062499;28;20067;-76
2022/11/29 09:57:09;;;;;;;23.33;12.27;;;;;;;6.42;95.18;101110.66;5064736;28;20044;-75
2022/11/29 09:59:46;;;;;;;22.33;11.70;;;;;;;6.47;95.14;101116.81;5083268;28;20425;-75
2022/11/29 10:02:21;;;;;;;16.60;9.93;;;;;;;6.52;94.82;101109.06;5084035;28;20048;-76
2022/11/29 10:04:54;;;;;;;15.30;10.27;;;;;;;6.54;94.57;101102.16;5091389;28;20033;-75
2022/11/29 10:07:30;;;;;;;19.75;11.50;;;;;;;6.56;94.28;101103.94;5073492;28;20040;-76
2022/11/29 10:10:03;;;;;;;14.70;10.10;;;;;;;6.58;94.17;101107.44;5070018;28;20050;-75
2022/11/29 10:12:38;;;;;;;13.32;9.60;;;;;;;6.59;94.19;101109.19;5069772;28;20040;-76
2022/11/29 10:15:15;;;;;;;19.98;10.70;;;;;;;6.65;93.85;101107.53;5065656;28;20040;-76
2022/11/29 10:17:52;;;;;;;19.77;10.50;;;;;;;6.65;93.82;101100.59;5082147;28;20040;-75
2022/11/29 10:20:24;;;;;;;21.05;10.95;;;;;;;6.70;93.90;101104.16;5081238;28;20056;-75
2022/11/29 10:23:22;;;;;;;14.65;9.85;;;;;;;6.73;93.63;101109.38;5077975;28;20048;-75
2022/11/29 10:25:55;;;;;;;17.80;11.02;;;;;;;6.74;93.73;101105.03;5088466;28;20046;-76
2022/11/29 10:28:30;;;;;;;18.23;10.90;;;;;;;6.72;93.60;101104.16;5075779;28;20060;-75
2022/11/29 10:31:04;;;;;;;21.13;12.05;;;;;;;6.76;93.89;101106.81;5054171;28;20521;-76
2022/11/29 10:33:37;;;;;;;21.30;10.93;;;;;;;6.82;93.43;101108.66;5070406;28;20048;-76
2022/11/29 10:36:26;;;;;;;18.83;11.13;;;;;;;6.86;93.22;101109.56;5073124;28;20067;-75
2022/11/29 10:38:59;;;;;;;23.40;11.48;;;;;;;6.81;93.22;101114.69;5074738;28;20064;-75
2022/11/29 10:41:27;;;;;;;23.33;12.95;;;;;;;6.80;93.41;101115.53;5068664;28;20047;-77
2022/11/29 10:43:57;;;;;;;20.17;11.43;;;;;;;6.83;93.74;101118.22;5081764;28;20124;-77
2022/11/29 10:46:33;;;;;;;19.63;12.23;;;;;;;6.86;93.20;101114.78;5077865;28;20048;-78
2022/11/29 10:49:06;;;;;;;23.25;13.15;;;;;;;6.88;93.55;101118.25;5079340;28;20058;-77
2022/11/29 10:51:33;;;;;;;16.40;10.73;;;;;;;6.94;93.91;101120.94;5079971;28;20051;-75
2022/11/29 10:54:19;;;;;;;19.60;13.02;;;;;;;6.99;93.32;101113.19;5075431;28;20301;-76
2022/11/29 10:56:47;;;;;;;20.05;13.15;;;;;;;7.00;93.62;101120.16;5074516;28;20070;-77
2022/11/29 10:59:29;;;;;;;20.42;11.57;;;;;;;6.99;93.85;101118.38;5053733;28;20056;-76
2022/11/29 11:01:57;;;;;;;21.30;13.07;;;;;;;7.04;93.94;101116.72;5053936;28;20048;-76
2022/11/29 11:04:37;;;;;;;25.33;15.00;;;;;;;7.03;93.51;101121.06;5055642;28;20397;-78
2022/11/29 11:07:24;;;;;;;17.10;11.13;;;;;;;7.03;93.26;101115.00;5055747;28;20376;-75
2022/11/29 11:09:55;;;;;;;20.95;13.00;;;;;;;7.01;93.13;101114.97;5058424;28;20052;-77
2022/11/29 11:12:27;;;;;;;16.42;11.30;;;;;;;7.02;93.77;101115.84;5057743;28;21412;-79
2022/11/29 11:15:30;;;;;;;20.38;12.35;;;;;;;7.09;93.33;101117.66;5059013;28;20052;-75
2022/11/29 11:18:04;;;;;;;18.77;11.88;;;;;;;7.16;93.15;101116.91;5065706;28;20036;-78
2022/11/29 11:20:40;;;;;;;29.55;13.98;;;;;;;7.22;92.48;101116.09;5055408;28;20867;-77
2022/11/29 11:23:30;;;;;;;19.20;12.70;;;;;;;7.31;92.69;101112.72;5071080;28;20083;-77
2022/11/29 11:26:04;;;;;;;20.48;13.02;;;;;;;7.39;92.21;101117.19;5065881;28;20046;-77
2022/11/29 11:28:51;;;;;;;21.77;13.48;;;;;;;7.51;91.39;101107.75;5073341;28;20115;-77
2022/11/29 11:31:29;;;;;;;18.25;11.68;;;;;;;7.53;90.68;101112.09;5071139;28;20048;-77
2022/11/29 11:33:56;;;;;;;19.48;11.38;;;;;;;7.51;90.73;101113.84;5072278;28;20067;-77
2022/11/29 11:36:27;;;;;;;21.73;13.32;;;;;;;7.50;91.30;101125.13;5071938;28;20036;-76
2022/11/29 11:39:10;;;;;;;18.52;12.63;;;;;;;7.45;91.09;101118.97;5086857;28;20051;-76
2022/11/29 11:44:37;;;;;;;18.25;12.32;;;;;;;7.40;91.31;101118.03;5061057;28;20048;-75
2022/11/29 11:47:07;;;;;;;23.50;12.60;;;;;;;7.39;91.19;101122.41;5076105;28;20048;-78
2022/11/29 11:49:46;;;;;;;18.30;12.30;;;;;;;7.39;91.01;101118.91;5060961;28;20052;-78
2022/11/29 11:52:29;;;;;;;17.88;11.63;;;;;;;7.41;91.39;101119.81;5059789;28;20075;-75
2022/11/29 11:55:03;;;;;;;17.42;10.77;;;;;;;7.45;91.35;101121.56;5056914;28;20052;-77
2022/11/29 11:57:33;;;;;;;;;;;;;;;7.53;90.39;101122.53;5063090;28;20098;-78
2022/11/29 12:00:01;;;;;;;18.80;11.60;;;;;;;7.58;90.32;101120.84;5085869;28;19992;-75
2022/11/29 12:02:40;;;;;;;21.90;13.02;;;;;;;7.58;90.01;101123.47;5085382;28;20100;-77
2022/11/29 12:05:26;;;;;;;24.23;13.30;;;;;;;7.52;89.99;101122.50;5065914;28;20044;-78
2022/11/29 12:07:59;;;;;;;21.88;12.95;;;;;;;7.45;90.83;101119.84;5071674;28;20044;-78
2022/11/29 12:10:33;;;;;;;25.05;15.20;;;;;;;7.42;91.11;101130.22;5072109;28;20042;-76
2022/11/29 12:13:01;;;;;;;25.92;15.05;;;;;;;7.31;92.07;101134.44;5071605;28;20047;-78
2022/11/29 12:15:38;;;;;;;27.48;16.25;;;;;;;7.21;92.75;101136.06;5055541;28;20044;-77
2022/11/29 12:18:29;;;;;;;28.00;16.88;;;;;;;7.15;92.91;101142.91;5090200;28;20042;-78
2022/11/29 12:21:22;;;;;;;22.25;13.55;;;;;;;7.08;94.41;101152.38;5084469;28;20028;-78
2022/11/29 12:24:04;;;;;;;31.70;17.35;;;;;;;7.04;94.51;101147.97;5086493;28;20410;-78
2022/11/29 12:26:41;;;;;;;25.70;17.45;;;;;;;6.99;94.99;101149.63;5082918;28;20036;-77
2022/11/29 12:29:17;;;;;;;29.08;17.60;;;;;;;6.89;95.08;101151.25;5088069;28;20782;-77
2022/11/29 12:31:59;;;;;;;30.05;17.80;;;;;;;6.84;95.44;101158.97;5069314;28;20036;-77
2022/11/29 12:34:59;;;;;;;39.35;22.23;;;;;;;6.67;95.99;101152.66;5055862;28;20048;-78
2022/11/29 12:37:48;;;;;;;34.85;19.85;;;;;;;6.60;96.78;101152.56;5058699;28;20051;-76